sensor_id;sensor_type;location;lat;lon;timestamp;pressure;altitude;pressure_sealevel;temperature;humidity
9521;BME280;4798;41.574;23.734;2023-02-15T00:00:10;96394.59;;;4.37;55.88
9521;BME280;4798;41.574;23.734;2023-02-15T00:02:39;96394.19;;;4.20;56.09
9521;BME280;4798;41.574;23.734;2023-02-15T00:05:09;96400.25;;;4.01;56.77
9521;BME280;4798;41.574;23.734;2023-02-15T00:07:37;96401.03;;;3.95;56.97
9521;BME280;4798;41.574;23.734;2023-02-15T00:10:08;96366.75;;;4.10;56.42
9521;BME280;4798;41.574;23.734;2023-02-15T00:12:37;96399.00;;;4.49;56.40
9521;BME280;4798;41.574;23.734;2023-02-15T00:15:06;96407.88;;;4.35;55.40
9521;BME280;4798;41.574;23.734;2023-02-15T00:17:35;96404.25;;;4.43;56.88
9521;BME280;4798;41.574;23.734;2023-02-15T00:20:04;96408.72;;;4.29;56.36
9521;BME280;4798;41.574;23.734;2023-02-15T00:22:34;96416.59;;;4.16;56.23
9521;BME280;4798;41.574;23.734;2023-02-15T00:25:02;96408.75;;;4.10;56.94
9521;BME280;4798;41.574;23.734;2023-02-15T00:27:31;96410.75;;;4.14;56.61
9521;BME280;4798;41.574;23.734;2023-02-15T00:29:59;96383.28;;;4.23;56.56
9521;BME280;4798;41.574;23.734;2023-02-15T00:32:27;96404.69;;;4.27;56.22
9521;BME280;4798;41.574;23.734;2023-02-15T00:34:55;96398.66;;;4.20;55.85
9521;BME280;4798;41.574;23.734;2023-02-15T00:37:24;96393.59;;;4.12;55.84
9521;BME280;4798;41.574;23.734;2023-02-15T00:39:53;96407.50;;;3.93;56.44
9521;BME280;4798;41.574;23.734;2023-02-15T00:42:22;96401.47;;;3.92;56.14
9521;BME280;4798;41.574;23.734;2023-02-15T00:44:50;96406.91;;;3.84;56.44
9521;BME280;4798;41.574;23.734;2023-02-15T00:47:18;96402.06;;;3.81;56.66
9521;BME280;4798;41.574;23.734;2023-02-15T00:49:46;96384.50;;;3.88;56.78
9521;BME280;4798;41.574;23.734;2023-02-15T00:52:15;96409.13;;;4.13;55.78
9521;BME280;4798;41.574;23.734;2023-02-15T00:54:43;96408.31;;;4.13;56.00
9521;BME280;4798;41.574;23.734;2023-02-15T00:57:13;96409.34;;;4.12;55.81
9521;BME280;4798;41.574;23.734;2023-02-15T00:59:41;96413.56;;;4.13;55.96
9521;BME280;4798;41.574;23.734;2023-02-15T01:02:09;96392.59;;;4.00;56.40
9521;BME280;4798;41.574;23.734;2023-02-15T01:04:37;96416.78;;;4.21;56.56
9521;BME280;4798;41.574;23.734;2023-02-15T01:07:06;96416.38;;;4.18;56.61
9521;BME280;4798;41.574;23.734;2023-02-15T01:09:34;96419.22;;;4.29;57.17
9521;BME280;4798;41.574;23.734;2023-02-15T01:12:03;96422.84;;;4.15;55.88
9521;BME280;4798;41.574;23.734;2023-02-15T01:14:32;96418.19;;;3.98;55.77
9521;BME280;4798;41.574;23.734;2023-02-15T01:17:01;96425.16;;;3.38;58.24
9521;BME280;4798;41.574;23.734;2023-02-15T01:19:29;96434.19;;;2.82;60.22
9521;BME280;4798;41.574;23.734;2023-02-15T01:21:57;96420.22;;;2.68;60.66
9521;BME280;4798;41.574;23.734;2023-02-15T01:24:26;96428.34;;;2.80;60.54
9521;BME280;4798;41.574;23.734;2023-02-15T01:26:54;96445.97;;;2.09;62.35
9521;BME280;4798;41.574;23.734;2023-02-15T01:29:22;96422.38;;;2.30;61.95
9521;BME280;4798;41.574;23.734;2023-02-15T01:31:52;96428.66;;;3.04;59.75
9521;BME280;4798;41.574;23.734;2023-02-15T01:34:20;96420.13;;;2.89;59.62
9521;BME280;4798;41.574;23.734;2023-02-15T01:36:49;96419.75;;;2.92;59.85
9521;BME280;4798;41.574;23.734;2023-02-15T01:39:17;96435.38;;;2.45;60.75
9521;BME280;4798;41.574;23.734;2023-02-15T01:41:45;96436.66;;;1.79;63.78
9521;BME280;4798;41.574;23.734;2023-02-15T01:44:49;96433.03;;;1.38;64.64
9521;BME280;4798;41.574;23.734;2023-02-15T01:47:22;96445.38;;;0.93;67.31
9521;BME280;4798;41.574;23.734;2023-02-15T01:50:01;96443.22;;;0.82;68.84
9521;BME280;4798;41.574;23.734;2023-02-15T01:52:34;96435.00;;;1.36;67.81
9521;BME280;4798;41.574;23.734;2023-02-15T01:55:04;96438.25;;;1.38;66.87
9521;BME280;4798;41.574;23.734;2023-02-15T01:57:35;96428.88;;;1.85;65.69
9521;BME280;4798;41.574;23.734;2023-02-15T02:00:07;96435.56;;;2.16;63.66
9521;BME280;4798;41.574;23.734;2023-02-15T02:02:38;96444.00;;;1.69;64.85
9521;BME280;4798;41.574;23.734;2023-02-15T02:05:07;96447.72;;;2.02;64.50
9521;BME280;4798;41.574;23.734;2023-02-15T02:07:38;96351.25;;;2.14;61.89
9521;BME280;4798;41.574;23.734;2023-02-15T02:10:09;96436.88;;;2.95;60.17
9521;BME280;4798;41.574;23.734;2023-02-15T02:12:41;96435.59;;;2.84;60.47
9521;BME280;4798;41.574;23.734;2023-02-15T02:15:10;96443.75;;;2.96;60.38
9521;BME280;4798;41.574;23.734;2023-02-15T02:17:52;96441.66;;;2.85;59.99
9521;BME280;4798;41.574;23.734;2023-02-15T02:23:24;96450.91;;;2.81;60.35
9521;BME280;4798;41.574;23.734;2023-02-15T02:26:16;96448.69;;;2.84;60.09
9521;BME280;4798;41.574;23.734;2023-02-15T02:32:27;96459.91;;;3.06;59.99
9521;BME280;4798;41.574;23.734;2023-02-15T02:35:09;96420.09;;;2.83;60.82
9521;BME280;4798;41.574;23.734;2023-02-15T02:37:47;96474.38;;;2.68;60.26
9521;BME280;4798;41.574;23.734;2023-02-15T02:40:24;96464.75;;;2.75;61.22
9521;BME280;4798;41.574;23.734;2023-02-15T02:42:59;96464.28;;;2.65;62.44
9521;BME280;4798;41.574;23.734;2023-02-15T02:45:34;96480.47;;;2.47;62.62
9521;BME280;4798;41.574;23.734;2023-02-15T02:48:07;96474.41;;;2.74;62.61
9521;BME280;4798;41.574;23.734;2023-02-15T02:50:39;96481.69;;;2.79;62.23
9521;BME280;4798;41.574;23.734;2023-02-15T02:53:09;96460.66;;;3.00;61.20
9521;BME280;4798;41.574;23.734;2023-02-15T02:55:40;96458.28;;;3.05;60.53
9521;BME280;4798;41.574;23.734;2023-02-15T02:58:14;96482.97;;;2.89;60.04
9521;BME280;4798;41.574;23.734;2023-02-15T03:00:46;96461.09;;;2.69;59.99
9521;BME280;4798;41.574;23.734;2023-02-15T03:03:24;96486.47;;;3.03;59.69
9521;BME280;4798;41.574;23.734;2023-02-15T03:05:58;96489.56;;;3.13;59.13
9521;BME280;4798;41.574;23.734;2023-02-15T03:08:32;96494.34;;;3.09;58.96
9521;BME280;4798;41.574;23.734;2023-02-15T03:11:03;96494.75;;;3.06;58.41
9521;BME280;4798;41.574;23.734;2023-02-15T03:13:32;96503.63;;;3.12;58.42
9521;BME280;4798;41.574;23.734;2023-02-15T03:16:01;96501.03;;;3.12;58.03
9521;BME280;4798;41.574;23.734;2023-02-15T03:18:52;96499.13;;;2.93;58.52
9521;BME280;4798;41.574;23.734;2023-02-15T03:21:32;96511.44;;;2.43;60.31
9521;BME280;4798;41.574;23.734;2023-02-15T03:24:06;96498.41;;;2.01;61.85
9521;BME280;4798;41.574;23.734;2023-02-15T03:26:36;96501.13;;;1.93;62.10
9521;BME280;4798;41.574;23.734;2023-02-15T03:29:06;96501.03;;;2.50;60.68
9521;BME280;4798;41.574;23.734;2023-02-15T03:31:38;96449.78;;;2.62;62.33
9521;BME280;4798;41.574;23.734;2023-02-15T03:34:11;96417.81;;;2.39;60.41
9521;BME280;4798;41.574;23.734;2023-02-15T03:36:45;96500.91;;;2.92;62.50
9521;BME280;4798;41.574;23.734;2023-02-15T03:39:19;96507.31;;;3.17;61.46
9521;BME280;4798;41.574;23.734;2023-02-15T03:41:54;96456.91;;;2.75;59.31
9521;BME280;4798;41.574;23.734;2023-02-15T03:44:27;96514.63;;;2.94;58.80
9521;BME280;4798;41.574;23.734;2023-02-15T03:47:02;96518.34;;;2.79;58.87
9521;BME280;4798;41.574;23.734;2023-02-15T03:49:39;96512.50;;;2.49;60.02
9521;BME280;4798;41.574;23.734;2023-02-15T03:52:13;96493.25;;;2.35;60.29
9521;BME280;4798;41.574;23.734;2023-02-15T03:54:43;96509.78;;;2.64;59.45
9521;BME280;4798;41.574;23.734;2023-02-15T03:57:15;96502.94;;;2.97;59.24
9521;BME280;4798;41.574;23.734;2023-02-15T04:00:04;96508.09;;;2.84;58.78
9521;BME280;4798;41.574;23.734;2023-02-15T04:03:05;96511.44;;;2.71;59.08
9521;BME280;4798;41.574;23.734;2023-02-15T04:05:35;96501.38;;;2.68;59.33
9521;BME280;4798;41.574;23.734;2023-02-15T04:08:05;96511.47;;;3.05;59.32
9521;BME280;4798;41.574;23.734;2023-02-15T04:10:33;96504.28;;;2.86;59.00
9521;BME280;4798;41.574;23.734;2023-02-15T04:13:19;96523.50;;;2.93;58.61
9521;BME280;4798;41.574;23.734;2023-02-15T04:15:47;96523.66;;;2.92;58.72
9521;BME280;4798;41.574;23.734;2023-02-15T04:18:33;96519.03;;;2.60;59.31
9521;BME280;4798;41.574;23.734;2023-02-15T04:21:20;96474.50;;;1.83;60.74
9521;BME280;4798;41.574;23.734;2023-02-15T04:24:08;96540.72;;;2.11;61.03
9521;BME280;4798;41.574;23.734;2023-02-15T04:26:54;96553.66;;;1.98;61.15
9521;BME280;4798;41.574;23.734;2023-02-15T04:29:24;96547.31;;;1.86;61.83
9521;BME280;4798;41.574;23.734;2023-02-15T04:31:54;96544.13;;;1.90;61.65
9521;BME280;4798;41.574;23.734;2023-02-15T04:34:23;96545.94;;;1.90;61.86
9521;BME280;4798;41.574;23.734;2023-02-15T04:36:51;96543.38;;;1.75;62.42
9521;BME280;4798;41.574;23.734;2023-02-15T04:39:21;96531.31;;;1.60;62.34
9521;BME280;4798;41.574;23.734;2023-02-15T04:41:50;96548.69;;;1.32;63.69
9521;BME280;4798;41.574;23.734;2023-02-15T04:44:18;96558.31;;;1.31;63.81
9521;BME280;4798;41.574;23.734;2023-02-15T04:46:46;96552.38;;;1.52;63.49
9521;BME280;4798;41.574;23.734;2023-02-15T04:49:15;96543.16;;;1.56;63.26
9521;BME280;4798;41.574;23.734;2023-02-15T04:51:43;96541.78;;;1.60;63.24
9521;BME280;4798;41.574;23.734;2023-02-15T04:54:11;96550.38;;;1.54;63.12
9521;BME280;4798;41.574;23.734;2023-02-15T04:56:41;96548.47;;;1.48;63.47
9521;BME280;4798;41.574;23.734;2023-02-15T04:59:10;96491.16;;;1.10;63.03
9521;BME280;4798;41.574;23.734;2023-02-15T05:01:38;96565.84;;;0.68;65.98
9521;BME280;4798;41.574;23.734;2023-02-15T05:04:07;96564.59;;;0.18;68.78
9521;BME280;4798;41.574;23.734;2023-02-15T05:06:36;96567.41;;;-0.06;71.81
9521;BME280;4798;41.574;23.734;2023-02-15T05:09:04;96573.16;;;-0.19;73.54
9521;BME280;4798;41.574;23.734;2023-02-15T05:11:32;96575.16;;;-0.21;73.90
9521;BME280;4798;41.574;23.734;2023-02-15T05:14:02;96580.34;;;-0.21;74.54
9521;BME280;4798;41.574;23.734;2023-02-15T05:16:31;96586.03;;;0.06;73.47
9521;BME280;4798;41.574;23.734;2023-02-15T05:18:59;96593.84;;;0.06;71.68
9521;BME280;4798;41.574;23.734;2023-02-15T05:21:28;96604.22;;;0.14;71.50
9521;BME280;4798;41.574;23.734;2023-02-15T05:23:56;96601.88;;;0.27;70.48
9521;BME280;4798;41.574;23.734;2023-02-15T05:26:25;96515.03;;;0.04;68.76
9521;BME280;4798;41.574;23.734;2023-02-15T05:29:12;96600.25;;;0.26;68.67
9521;BME280;4798;41.574;23.734;2023-02-15T05:31:40;96602.63;;;0.58;67.13
9521;BME280;4798;41.574;23.734;2023-02-15T05:34:11;96590.63;;;0.49;67.42
9521;BME280;4798;41.574;23.734;2023-02-15T05:36:39;96596.41;;;0.36;68.16
9521;BME280;4798;41.574;23.734;2023-02-15T05:39:07;96593.97;;;1.09;66.33
9521;BME280;4798;41.574;23.734;2023-02-15T05:41:36;96603.50;;;1.02;67.75
9521;BME280;4798;41.574;23.734;2023-02-15T05:44:07;96561.53;;;0.89;65.14
9521;BME280;4798;41.574;23.734;2023-02-15T05:46:37;96598.81;;;0.83;66.36
9521;BME280;4798;41.574;23.734;2023-02-15T05:49:05;96600.38;;;0.70;66.72
9521;BME280;4798;41.574;23.734;2023-02-15T05:51:34;96606.59;;;1.06;66.26
9521;BME280;4798;41.574;23.734;2023-02-15T05:54:02;96562.66;;;0.43;67.56
9521;BME280;4798;41.574;23.734;2023-02-15T05:56:31;96617.41;;;0.43;69.30
9521;BME280;4798;41.574;23.734;2023-02-15T05:58:59;96623.66;;;0.56;70.24
9521;BME280;4798;41.574;23.734;2023-02-15T06:01:30;96636.09;;;0.69;68.34
9521;BME280;4798;41.574;23.734;2023-02-15T06:03:59;96627.28;;;0.70;69.08
9521;BME280;4798;41.574;23.734;2023-02-15T06:06:28;96620.09;;;1.39;66.42
9521;BME280;4798;41.574;23.734;2023-02-15T06:08:56;96551.09;;;1.48;63.88
9521;BME280;4798;41.574;23.734;2023-02-15T06:11:24;96622.97;;;2.09;62.78
9521;BME280;4798;41.574;23.734;2023-02-15T06:13:53;96632.75;;;2.78;60.67
9521;BME280;4798;41.574;23.734;2023-02-15T06:16:21;96631.63;;;2.45;61.70
9521;BME280;4798;41.574;23.734;2023-02-15T06:18:49;96631.34;;;2.61;61.06
9521;BME280;4798;41.574;23.734;2023-02-15T06:21:20;96624.56;;;2.88;60.29
9521;BME280;4798;41.574;23.734;2023-02-15T06:23:49;96622.81;;;3.29;59.71
9521;BME280;4798;41.574;23.734;2023-02-15T06:26:17;96619.19;;;3.24;59.02
9521;BME280;4798;41.574;23.734;2023-02-15T06:28:45;96625.53;;;3.42;59.58
9521;BME280;4798;41.574;23.734;2023-02-15T06:31:14;96612.66;;;3.47;59.24
9521;BME280;4798;41.574;23.734;2023-02-15T06:33:42;96628.31;;;4.16;57.87
9521;BME280;4798;41.574;23.734;2023-02-15T06:36:12;96626.78;;;4.54;57.01
9521;BME280;4798;41.574;23.734;2023-02-15T06:38:42;96616.34;;;5.00;55.08
9521;BME280;4798;41.574;23.734;2023-02-15T06:41:10;96625.56;;;5.55;53.92
9521;BME280;4798;41.574;23.734;2023-02-15T06:43:38;96610.66;;;5.36;53.81
9521;BME280;4798;41.574;23.734;2023-02-15T06:46:07;96617.16;;;5.97;53.02
9521;BME280;4798;41.574;23.734;2023-02-15T06:48:36;96621.06;;;5.75;53.21
9521;BME280;4798;41.574;23.734;2023-02-15T06:51:05;96617.84;;;5.73;53.24
9521;BME280;4798;41.574;23.734;2023-02-15T06:53:33;96608.00;;;5.49;53.92
9521;BME280;4798;41.574;23.734;2023-02-15T06:56:05;96595.88;;;5.35;54.18
9521;BME280;4798;41.574;23.734;2023-02-15T06:58:36;96617.88;;;5.60;54.07
9521;BME280;4798;41.574;23.734;2023-02-15T07:01:05;96589.97;;;5.59;53.41
9521;BME280;4798;41.574;23.734;2023-02-15T07:03:34;96595.47;;;5.25;54.02
9521;BME280;4798;41.574;23.734;2023-02-15T07:06:04;96626.72;;;5.72;54.19
9521;BME280;4798;41.574;23.734;2023-02-15T07:08:35;96579.19;;;5.67;53.22
9521;BME280;4798;41.574;23.734;2023-02-15T07:11:06;96577.78;;;5.71;52.47
9521;BME280;4798;41.574;23.734;2023-02-15T07:13:52;96625.41;;;6.14;52.67
9521;BME280;4798;41.574;23.734;2023-02-15T07:16:20;96623.84;;;6.37;51.96
9521;BME280;4798;41.574;23.734;2023-02-15T07:18:49;96622.63;;;6.78;50.61
9521;BME280;4798;41.574;23.734;2023-02-15T07:21:17;96582.06;;;7.03;50.46
9521;BME280;4798;41.574;23.734;2023-02-15T07:23:45;96623.56;;;7.57;49.98
9521;BME280;4798;41.574;23.734;2023-02-15T07:26:16;96626.00;;;7.34;50.40
9521;BME280;4798;41.574;23.734;2023-02-15T07:28:44;96620.91;;;8.48;48.32
9521;BME280;4798;41.574;23.734;2023-02-15T07:31:12;96620.34;;;8.87;47.99
9521;BME280;4798;41.574;23.734;2023-02-15T07:33:41;96619.81;;;9.20;45.97
9521;BME280;4798;41.574;23.734;2023-02-15T07:36:10;96552.63;;;9.56;45.38
9521;BME280;4798;41.574;23.734;2023-02-15T07:38:40;96586.00;;;9.45;44.89
9521;BME280;4798;41.574;23.734;2023-02-15T07:41:11;96614.13;;;10.21;45.08
9521;BME280;4798;41.574;23.734;2023-02-15T07:43:42;96614.19;;;9.75;45.73
9521;BME280;4798;41.574;23.734;2023-02-15T07:46:12;96576.53;;;9.73;44.66
9521;BME280;4798;41.574;23.734;2023-02-15T07:48:41;96613.72;;;10.41;44.34
9521;BME280;4798;41.574;23.734;2023-02-15T07:51:11;96606.84;;;10.84;44.08
9521;BME280;4798;41.574;23.734;2023-02-15T07:53:40;96591.41;;;11.15;42.74
9521;BME280;4798;41.574;23.734;2023-02-15T07:56:11;96605.94;;;10.79;43.06
9521;BME280;4798;41.574;23.734;2023-02-15T07:58:41;96603.88;;;11.47;42.54
9521;BME280;4798;41.574;23.734;2023-02-15T08:01:24;96596.88;;;12.18;42.08
9521;BME280;4798;41.574;23.734;2023-02-15T08:03:53;96592.53;;;11.69;42.22
9521;BME280;4798;41.574;23.734;2023-02-15T08:06:23;96583.66;;;12.23;41.79
9521;BME280;4798;41.574;23.734;2023-02-15T08:08:51;96592.06;;;12.15;40.96
9521;BME280;4798;41.574;23.734;2023-02-15T08:11:21;96563.13;;;11.75;40.60
9521;BME280;4798;41.574;23.734;2023-02-15T08:13:58;96603.94;;;11.36;42.17
9521;BME280;4798;41.574;23.734;2023-02-15T08:16:29;96590.88;;;12.49;40.37
9521;BME280;4798;41.574;23.734;2023-02-15T08:18:59;96584.09;;;12.90;40.05
9521;BME280;4798;41.574;23.734;2023-02-15T08:21:29;96576.22;;;11.27;41.45
9521;BME280;4798;41.574;23.734;2023-02-15T08:23:58;96591.19;;;12.31;40.81
9521;BME280;4798;41.574;23.734;2023-02-15T08:26:28;96582.34;;;12.52;40.38
9521;BME280;4798;41.574;23.734;2023-02-15T08:28:59;96580.75;;;12.78;40.17
9521;BME280;4798;41.574;23.734;2023-02-15T08:31:28;96565.44;;;13.17;39.21
9521;BME280;4798;41.574;23.734;2023-02-15T08:33:57;96529.84;;;12.64;39.46
9521;BME280;4798;41.574;23.734;2023-02-15T08:36:27;96577.25;;;13.31;40.32
9521;BME280;4798;41.574;23.734;2023-02-15T08:38:57;96579.59;;;13.64;39.63
9521;BME280;4798;41.574;23.734;2023-02-15T08:41:27;96575.97;;;13.80;38.97
9521;BME280;4798;41.574;23.734;2023-02-15T08:43:59;96568.78;;;14.38;38.11
9521;BME280;4798;41.574;23.734;2023-02-15T08:46:29;96577.09;;;14.56;37.23
9521;BME280;4798;41.574;23.734;2023-02-15T08:48:58;96555.53;;;14.78;36.48
9521;BME280;4798;41.574;23.734;2023-02-15T08:51:28;96556.88;;;16.35;34.68
9521;BME280;4798;41.574;23.734;2023-02-15T08:53:59;96551.03;;;17.45;33.10
9521;BME280;4798;41.574;23.734;2023-02-15T08:56:29;96558.81;;;16.79;33.78
9521;BME280;4798;41.574;23.734;2023-02-15T08:59:00;96563.41;;;16.04;34.09
9521;BME280;4798;41.574;23.734;2023-02-15T09:01:30;96556.50;;;17.63;32.56
9521;BME280;4798;41.574;23.734;2023-02-15T09:04:00;96551.56;;;16.25;33.46
9521;BME280;4798;41.574;23.734;2023-02-15T09:06:28;96556.31;;;16.38;33.25
9521;BME280;4798;41.574;23.734;2023-02-15T09:08:57;96555.94;;;16.06;33.07
9521;BME280;4798;41.574;23.734;2023-02-15T09:11:27;96552.09;;;16.27;34.19
9521;BME280;4798;41.574;23.734;2023-02-15T09:13:58;96539.09;;;16.60;32.74
9521;BME280;4798;41.574;23.734;2023-02-15T09:16:29;96547.09;;;17.37;31.87
9521;BME280;4798;41.574;23.734;2023-02-15T09:18:58;96540.16;;;18.55;30.98
9521;BME280;4798;41.574;23.734;2023-02-15T09:21:28;96526.78;;;19.06;30.36
9521;BME280;4798;41.574;23.734;2023-02-15T09:23:58;96446.38;;;19.55;29.82
9521;BME280;4798;41.574;23.734;2023-02-15T09:26:29;96524.88;;;19.25;29.31
9521;BME280;4798;41.574;23.734;2023-02-15T09:28:59;96520.56;;;18.91;30.74
9521;BME280;4798;41.574;23.734;2023-02-15T09:31:30;96533.34;;;18.62;30.26
9521;BME280;4798;41.574;23.734;2023-02-15T09:34:01;96519.59;;;17.79;31.88
9521;BME280;4798;41.574;23.734;2023-02-15T09:36:30;96490.72;;;17.71;31.20
9521;BME280;4798;41.574;23.734;2023-02-15T09:39:01;96516.72;;;18.60;31.10
9521;BME280;4798;41.574;23.734;2023-02-15T09:41:56;96519.56;;;17.60;31.40
9521;BME280;4798;41.574;23.734;2023-02-15T09:44:37;96515.88;;;17.99;30.99
9521;BME280;4798;41.574;23.734;2023-02-15T09:47:23;96519.44;;;17.94;30.96
9521;BME280;4798;41.574;23.734;2023-02-15T09:50:02;96483.25;;;17.92;30.91
9521;BME280;4798;41.574;23.734;2023-02-15T09:52:39;96504.72;;;17.10;31.75
9521;BME280;4798;41.574;23.734;2023-02-15T09:55:31;96492.31;;;18.38;30.02
9521;BME280;4798;41.574;23.734;2023-02-15T09:58:08;96486.06;;;18.98;29.98
9521;BME280;4798;41.574;23.734;2023-02-15T10:00:45;96489.03;;;18.22;29.64
9521;BME280;4798;41.574;23.734;2023-02-15T10:03:26;96479.63;;;18.01;29.74
9521;BME280;4798;41.574;23.734;2023-02-15T10:09:16;96465.63;;;19.30;28.45
9521;BME280;4798;41.574;23.734;2023-02-15T10:11:58;96460.88;;;20.36;27.60
9521;BME280;4798;41.574;23.734;2023-02-15T10:14:54;96462.69;;;19.45;28.27
9521;BME280;4798;41.574;23.734;2023-02-15T10:17:34;96476.75;;;17.22;30.52
9521;BME280;4798;41.574;23.734;2023-02-15T10:20:17;96451.28;;;18.56;30.06
9521;BME280;4798;41.574;23.734;2023-02-15T10:23:08;96443.56;;;18.68;29.42
9521;BME280;4798;41.574;23.734;2023-02-15T10:25:46;96376.19;;;20.64;27.54
9521;BME280;4798;41.574;23.734;2023-02-15T10:28:22;96438.75;;;20.25;27.47
9521;BME280;4798;41.574;23.734;2023-02-15T10:30:55;96432.00;;;21.16;27.48
9521;BME280;4798;41.574;23.734;2023-02-15T10:33:37;96375.06;;;19.57;26.87
9521;BME280;4798;41.574;23.734;2023-02-15T10:36:20;96364.84;;;19.95;26.52
9521;BME280;4798;41.574;23.734;2023-02-15T10:38:56;96418.19;;;20.29;26.49
9521;BME280;4798;41.574;23.734;2023-02-15T10:41:37;96420.09;;;19.66;27.08
9521;BME280;4798;41.574;23.734;2023-02-15T10:44:27;96415.47;;;18.79;28.63
9521;BME280;4798;41.574;23.734;2023-02-15T10:47:27;96411.16;;;20.42;26.76
9521;BME280;4798;41.574;23.734;2023-02-15T10:50:20;96407.63;;;20.55;27.41
9521;BME280;4798;41.574;23.734;2023-02-15T10:53:14;96400.72;;;21.46;27.02
9521;BME280;4798;41.574;23.734;2023-02-15T10:55:56;96369.09;;;19.96;25.63
9521;BME280;4798;41.574;23.734;2023-02-15T10:58:42;96403.00;;;19.97;26.80
9521;BME280;4798;41.574;23.734;2023-02-15T11:01:19;96408.09;;;19.85;27.50
9521;BME280;4798;41.574;23.734;2023-02-15T11:04:23;96398.41;;;19.16;28.09
9521;BME280;4798;41.574;23.734;2023-02-15T11:07:02;96368.41;;;18.95;28.69
9521;BME280;4798;41.574;23.734;2023-02-15T11:09:38;96388.84;;;19.10;28.63
9521;BME280;4798;41.574;23.734;2023-02-15T11:12:13;96333.44;;;19.91;27.16
9521;BME280;4798;41.574;23.734;2023-02-15T11:14:46;96387.31;;;18.90;28.05
9521;BME280;4798;41.574;23.734;2023-02-15T11:17:22;96337.56;;;18.47;28.59
9521;BME280;4798;41.574;23.734;2023-02-15T11:19:58;96384.84;;;20.83;27.07
9521;BME280;4798;41.574;23.734;2023-02-15T11:22:30;96380.97;;;21.68;26.31
9521;BME280;4798;41.574;23.734;2023-02-15T11:25:14;96369.81;;;22.26;25.85
9521;BME280;4798;41.574;23.734;2023-02-15T11:27:46;96364.47;;;21.69;26.44
9521;BME280;4798;41.574;23.734;2023-02-15T11:30:19;96372.56;;;20.46;27.99
9521;BME280;4798;41.574;23.734;2023-02-15T11:32:50;96370.75;;;19.70;27.52
9521;BME280;4798;41.574;23.734;2023-02-15T11:35:24;96319.25;;;19.36;27.76
9521;BME280;4798;41.574;23.734;2023-02-15T11:37:59;96364.03;;;19.45;28.02
9521;BME280;4798;41.574;23.734;2023-02-15T11:40:33;96340.53;;;18.78;28.63
9521;BME280;4798;41.574;23.734;2023-02-15T11:43:05;96352.81;;;20.15;28.32
9521;BME280;4798;41.574;23.734;2023-02-15T11:45:35;96348.00;;;20.25;28.11
9521;BME280;4798;41.574;23.734;2023-02-15T11:48:10;96354.50;;;20.47;28.07
9521;BME280;4798;41.574;23.734;2023-02-15T11:50:39;96351.59;;;21.18;26.98
9521;BME280;4798;41.574;23.734;2023-02-15T11:53:12;96344.78;;;21.12;26.34
9521;BME280;4798;41.574;23.734;2023-02-15T11:55:43;96348.28;;;21.21;26.47
9521;BME280;4798;41.574;23.734;2023-02-15T11:58:21;96267.19;;;19.81;27.71
9521;BME280;4798;41.574;23.734;2023-02-15T12:00:56;96335.03;;;22.16;25.95
9521;BME280;4798;41.574;23.734;2023-02-15T12:03:42;96327.56;;;22.21;25.75
9521;BME280;4798;41.574;23.734;2023-02-15T12:06:17;96325.81;;;22.34;25.61
9521;BME280;4798;41.574;23.734;2023-02-15T12:08:51;96322.13;;;22.30;26.16
9521;BME280;4798;41.574;23.734;2023-02-15T12:11:26;96323.56;;;22.27;25.76
9521;BME280;4798;41.574;23.734;2023-02-15T12:13:59;96266.16;;;21.27;25.80
9521;BME280;4798;41.574;23.734;2023-02-15T12:16:29;96278.31;;;21.16;26.34
9521;BME280;4798;41.574;23.734;2023-02-15T12:19:01;96308.28;;;21.63;27.03
9521;BME280;4798;41.574;23.734;2023-02-15T12:21:32;96306.69;;;22.56;25.66
9521;BME280;4798;41.574;23.734;2023-02-15T12:24:11;96299.88;;;22.50;25.08
9521;BME280;4798;41.574;23.734;2023-02-15T12:26:42;96264.59;;;20.65;26.49
9521;BME280;4798;41.574;23.734;2023-02-15T12:29:16;96307.19;;;20.85;26.59
9521;BME280;4798;41.574;23.734;2023-02-15T12:31:46;96299.38;;;21.71;26.53
9521;BME280;4798;41.574;23.734;2023-02-15T12:34:19;96290.88;;;19.93;27.42
9521;BME280;4798;41.574;23.734;2023-02-15T12:36:52;96291.72;;;20.99;26.73
9521;BME280;4798;41.574;23.734;2023-02-15T12:39:26;96214.13;;;21.35;26.05
9521;BME280;4798;41.574;23.734;2023-02-15T12:42:02;96211.72;;;21.25;26.00
9521;BME280;4798;41.574;23.734;2023-02-15T12:44:32;96283.34;;;23.44;26.01
9521;BME280;4798;41.574;23.734;2023-02-15T12:47:02;96272.44;;;22.86;25.35
9521;BME280;4798;41.574;23.734;2023-02-15T12:49:32;96262.81;;;22.59;25.41
9521;BME280;4798;41.574;23.734;2023-02-15T12:52:02;96285.38;;;20.34;27.02
9521;BME280;4798;41.574;23.734;2023-02-15T12:54:38;96269.22;;;21.69;26.49
9521;BME280;4798;41.574;23.734;2023-02-15T12:57:26;96266.06;;;22.27;25.70
9521;BME280;4798;41.574;23.734;2023-02-15T12:59:57;96269.69;;;21.53;26.98
9521;BME280;4798;41.574;23.734;2023-02-15T13:02:33;96266.00;;;21.32;26.36
9521;BME280;4798;41.574;23.734;2023-02-15T13:05:13;96261.16;;;22.03;26.61
9521;BME280;4798;41.574;23.734;2023-02-15T13:07:45;96259.41;;;22.88;25.83
9521;BME280;4798;41.574;23.734;2023-02-15T13:10:25;96251.88;;;22.47;25.78
9521;BME280;4798;41.574;23.734;2023-02-15T13:12:57;96227.50;;;20.09;27.93
9521;BME280;4798;41.574;23.734;2023-02-15T13:15:32;96252.53;;;20.54;27.35
9521;BME280;4798;41.574;23.734;2023-02-15T13:18:04;96276.09;;;21.18;26.61
9521;BME280;4798;41.574;23.734;2023-02-15T13:20:34;96228.53;;;19.55;27.69
9521;BME280;4798;41.574;23.734;2023-02-15T13:23:19;96270.22;;;20.24;27.77
9521;BME280;4798;41.574;23.734;2023-02-15T13:25:50;96253.78;;;20.87;27.71
9521;BME280;4798;41.574;23.734;2023-02-15T13:28:23;96251.72;;;21.32;27.02
9521;BME280;4798;41.574;23.734;2023-02-15T13:30:53;96257.41;;;21.30;26.65
9521;BME280;4798;41.574;23.734;2023-02-15T13:33:25;96251.63;;;21.63;26.94
9521;BME280;4798;41.574;23.734;2023-02-15T13:36:00;96239.13;;;20.18;27.99
9521;BME280;4798;41.574;23.734;2023-02-15T13:39:08;96263.59;;;20.52;26.91
9521;BME280;4798;41.574;23.734;2023-02-15T13:41:48;96256.16;;;19.20;28.46
9521;BME280;4798;41.574;23.734;2023-02-15T13:44:29;96255.53;;;19.36;28.53
9521;BME280;4798;41.574;23.734;2023-02-15T13:47:13;96236.03;;;20.86;27.04
9521;BME280;4798;41.574;23.734;2023-02-15T13:49:55;96248.84;;;21.20;26.46
9521;BME280;4798;41.574;23.734;2023-02-15T13:52:28;96251.25;;;20.07;27.98
9521;BME280;4798;41.574;23.734;2023-02-15T13:55:20;96259.66;;;18.93;28.64
9521;BME280;4798;41.574;23.734;2023-02-15T13:58:18;96256.47;;;19.05;29.00